sensor_id;sensor_type;location;lat;lon;timestamp;pressure;altitude;pressure_sealevel;temperature;humidity
8320;BME280;4197;42.130;24.746;2022-12-15T00:02:15;98880.72;;;2.11;100.00
8320;BME280;4197;42.130;24.746;2022-12-15T00:05:01;98876.13;;;2.03;100.00
8320;BME280;4197;42.130;24.746;2022-12-15T00:07:47;98860.09;;;2.20;100.00
8320;BME280;4197;42.130;24.746;2022-12-15T00:10:32;98855.38;;;2.09;100.00
8320;BME280;4197;42.130;24.746;2022-12-15T00:13:19;98856.81;;;2.23;100.00
8320;BME280;4197;42.130;24.746;2022-12-15T00:16:05;98851.94;;;2.17;100.00
8320;BME280;4197;42.130;24.746;2022-12-15T00:18:51;98859.63;;;2.27;100.00
8320;BME280;4197;42.130;24.746;2022-12-15T00:21:36;98868.16;;;2.29;100.00
8320;BME280;4197;42.130;24.746;2022-12-15T00:24:22;98884.19;;;2.20;100.00
8320;BME280;4197;42.130;24.746;2022-12-15T00:27:07;98862.50;;;2.22;100.00
8320;BME280;4197;42.130;24.746;2022-12-15T00:29:54;98846.72;;;2.20;100.00
8320;BME280;4197;42.130;24.746;2022-12-15T00:32:40;98856.16;;;2.18;100.00
8320;BME280;4197;42.130;24.746;2022-12-15T00:35:26;98854.88;;;2.07;100.00
8320;BME280;4197;42.130;24.746;2022-12-15T00:38:14;98855.88;;;2.19;100.00
8320;BME280;4197;42.130;24.746;2022-12-15T00:41:00;98855.06;;;2.19;100.00
8320;BME280;4197;42.130;24.746;2022-12-15T00:43:29;98855.88;;;2.19;100.00
8320;BME280;4197;42.130;24.746;2022-12-15T00:46:00;98851.44;;;2.15;100.00
8320;BME280;4197;42.130;24.746;2022-12-15T00:48:46;98845.66;;;2.30;100.00
8320;BME280;4197;42.130;24.746;2022-12-15T00:51:15;98868.34;;;2.50;100.00
8320;BME280;4197;42.130;24.746;2022-12-15T00:53:42;98871.78;;;2.42;100.00
8320;BME280;4197;42.130;24.746;2022-12-15T00:56:29;98843.28;;;2.29;100.00
8320;BME280;4197;42.130;24.746;2022-12-15T00:59:15;98816.69;;;2.23;100.00
8320;BME280;4197;42.130;24.746;2022-12-15T01:02:03;98834.75;;;2.09;100.00
8320;BME280;4197;42.130;24.746;2022-12-15T01:04:48;98839.50;;;2.21;100.00
8320;BME280;4197;42.130;24.746;2022-12-15T01:07:34;98853.34;;;2.49;100.00
8320;BME280;4197;42.130;24.746;2022-12-15T01:10:19;98821.88;;;2.37;100.00
8320;BME280;4197;42.130;24.746;2022-12-15T01:13:05;98814.63;;;2.38;100.00
8320;BME280;4197;42.130;24.746;2022-12-15T01:15:50;98825.97;;;2.52;100.00
8320;BME280;4197;42.130;24.746;2022-12-15T01:18:38;98811.34;;;2.32;100.00
8320;BME280;4197;42.130;24.746;2022-12-15T01:21:23;98821.88;;;2.29;100.00
8320;BME280;4197;42.130;24.746;2022-12-15T01:23:52;98825.34;;;2.29;100.00
8320;BME280;4197;42.130;24.746;2022-12-15T01:26:20;98819.84;;;2.34;100.00
8320;BME280;4197;42.130;24.746;2022-12-15T01:28:48;98810.25;;;2.42;100.00
8320;BME280;4197;42.130;24.746;2022-12-15T01:31:16;98835.88;;;2.43;100.00
8320;BME280;4197;42.130;24.746;2022-12-15T01:33:46;98852.91;;;2.56;100.00
8320;BME280;4197;42.130;24.746;2022-12-15T01:36:14;98840.16;;;2.61;100.00
8320;BME280;4197;42.130;24.746;2022-12-15T01:38:42;98842.84;;;2.53;100.00
8320;BME280;4197;42.130;24.746;2022-12-15T01:41:17;98837.00;;;2.59;100.00
8320;BME280;4197;42.130;24.746;2022-12-15T01:43:45;98849.28;;;2.69;100.00
8320;BME280;4197;42.130;24.746;2022-12-15T01:46:16;98843.91;;;2.60;100.00
8320;BME280;4197;42.130;24.746;2022-12-15T01:48:50;98837.78;;;2.42;100.00
8320;BME280;4197;42.130;24.746;2022-12-15T01:51:24;98845.66;;;2.39;100.00
8320;BME280;4197;42.130;24.746;2022-12-15T01:53:58;98844.06;;;2.46;100.00
8320;BME280;4197;42.130;24.746;2022-12-15T01:56:31;98817.00;;;2.39;100.00
8320;BME280;4197;42.130;24.746;2022-12-15T01:59:04;98834.00;;;2.35;100.00
8320;BME280;4197;42.130;24.746;2022-12-15T02:01:34;98855.59;;;2.47;100.00
8320;BME280;4197;42.130;24.746;2022-12-15T02:04:04;98862.34;;;2.44;100.00
8320;BME280;4197;42.130;24.746;2022-12-15T02:06:32;98865.31;;;2.43;100.00
8320;BME280;4197;42.130;24.746;2022-12-15T02:09:01;98870.19;;;2.41;100.00
8320;BME280;4197;42.130;24.746;2022-12-15T02:11:42;98860.75;;;2.43;100.00
8320;BME280;4197;42.130;24.746;2022-12-15T02:14:14;98883.59;;;2.50;100.00
8320;BME280;4197;42.130;24.746;2022-12-15T02:16:56;98893.50;;;2.49;100.00
8320;BME280;4197;42.130;24.746;2022-12-15T02:22:33;98886.88;;;2.29;100.00
8320;BME280;4197;42.130;24.746;2022-12-15T02:25:21;98894.13;;;2.37;100.00
8320;BME280;4197;42.130;24.746;2022-12-15T02:27:56;98899.63;;;2.41;100.00
8320;BME280;4197;42.130;24.746;2022-12-15T02:30:38;98904.53;;;2.39;100.00
8320;BME280;4197;42.130;24.746;2022-12-15T02:33:12;98908.78;;;2.40;100.00
8320;BME280;4197;42.130;24.746;2022-12-15T02:35:53;98892.72;;;2.40;100.00
8320;BME280;4197;42.130;24.746;2022-12-15T02:38:31;98881.03;;;2.27;100.00
8320;BME280;4197;42.130;24.746;2022-12-15T02:41:01;98876.94;;;2.30;100.00
8320;BME280;4197;42.130;24.746;2022-12-15T02:43:33;98913.47;;;2.34;100.00
8320;BME280;4197;42.130;24.746;2022-12-15T02:46:14;98925.44;;;2.28;100.00
8320;BME280;4197;42.130;24.746;2022-12-15T02:48:54;98922.28;;;2.26;100.00
8320;BME280;4197;42.130;24.746;2022-12-15T02:51:37;98922.75;;;2.28;100.00
8320;BME280;4197;42.130;24.746;2022-12-15T02:54:26;98916.44;;;2.24;100.00
8320;BME280;4197;42.130;24.746;2022-12-15T02:57:02;98887.78;;;2.16;100.00
8320;BME280;4197;42.130;24.746;2022-12-15T02:59:37;98901.97;;;2.25;100.00
8320;BME280;4197;42.130;24.746;2022-12-15T03:02:12;98900.56;;;2.28;100.00
8320;BME280;4197;42.130;24.746;2022-12-15T03:04:42;98893.63;;;2.27;100.00
8320;BME280;4197;42.130;24.746;2022-12-15T03:07:13;98878.53;;;2.31;100.00
8320;BME280;4197;42.130;24.746;2022-12-15T03:09:41;98890.03;;;2.31;100.00
8320;BME280;4197;42.130;24.746;2022-12-15T03:12:09;98882.63;;;2.28;100.00
8320;BME280;4197;42.130;24.746;2022-12-15T03:14:37;98901.84;;;2.39;100.00
8320;BME280;4197;42.130;24.746;2022-12-15T03:17:05;98903.09;;;2.33;100.00
8320;BME280;4197;42.130;24.746;2022-12-15T03:19:35;98891.59;;;2.23;100.00
8320;BME280;4197;42.130;24.746;2022-12-15T03:22:03;98899.16;;;2.30;100.00
8320;BME280;4197;42.130;24.746;2022-12-15T03:24:32;98912.34;;;2.27;100.00
8320;BME280;4197;42.130;24.746;2022-12-15T03:27:00;98883.91;;;2.31;100.00
8320;BME280;4197;42.130;24.746;2022-12-15T03:29:28;98883.56;;;2.32;100.00
8320;BME280;4197;42.130;24.746;2022-12-15T03:31:57;98887.22;;;2.36;100.00
8320;BME280;4197;42.130;24.746;2022-12-15T03:34:25;98882.78;;;2.40;100.00
8320;BME280;4197;42.130;24.746;2022-12-15T03:36:55;98891.00;;;2.44;100.00
8320;BME280;4197;42.130;24.746;2022-12-15T03:39:23;98891.00;;;2.44;100.00
8320;BME280;4197;42.130;24.746;2022-12-15T03:41:51;98879.34;;;2.49;100.00
8320;BME280;4197;42.130;24.746;2022-12-15T03:44:19;98882.97;;;2.61;100.00
8320;BME280;4197;42.130;24.746;2022-12-15T03:46:47;98883.47;;;2.63;100.00
8320;BME280;4197;42.130;24.746;2022-12-15T03:49:15;98866.78;;;2.58;100.00
8320;BME280;4197;42.130;24.746;2022-12-15T03:51:43;98861.72;;;2.56;100.00
8320;BME280;4197;42.130;24.746;2022-12-15T03:54:13;98865.34;;;2.69;100.00
8320;BME280;4197;42.130;24.746;2022-12-15T03:56:42;98862.97;;;2.76;100.00
8320;BME280;4197;42.130;24.746;2022-12-15T03:59:10;98854.16;;;2.76;100.00
8320;BME280;4197;42.130;24.746;2022-12-15T04:01:44;98857.16;;;2.83;100.00
8320;BME280;4197;42.130;24.746;2022-12-15T04:04:14;98860.63;;;2.83;100.00
8320;BME280;4197;42.130;24.746;2022-12-15T04:06:42;98856.97;;;2.79;100.00
8320;BME280;4197;42.130;24.746;2022-12-15T04:09:10;98848.47;;;2.86;100.00
8320;BME280;4197;42.130;24.746;2022-12-15T04:11:40;98860.91;;;2.90;100.00
8320;BME280;4197;42.130;24.746;2022-12-15T04:14:08;98855.88;;;2.89;100.00
8320;BME280;4197;42.130;24.746;2022-12-15T04:16:36;98847.84;;;2.89;100.00
8320;BME280;4197;42.130;24.746;2022-12-15T04:19:04;98849.56;;;2.85;100.00
8320;BME280;4197;42.130;24.746;2022-12-15T04:21:50;98849.25;;;2.95;100.00
8320;BME280;4197;42.130;24.746;2022-12-15T04:24:18;98853.03;;;2.94;100.00
8320;BME280;4197;42.130;24.746;2022-12-15T04:27:05;98851.16;;;2.95;100.00
8320;BME280;4197;42.130;24.746;2022-12-15T04:29:50;98843.91;;;2.95;100.00
8320;BME280;4197;42.130;24.746;2022-12-15T04:32:36;98853.03;;;2.94;100.00
8320;BME280;4197;42.130;24.746;2022-12-15T04:35:22;98856.34;;;2.82;100.00
8320;BME280;4197;42.130;24.746;2022-12-15T04:38:07;98849.56;;;2.85;100.00
8320;BME280;4197;42.130;24.746;2022-12-15T04:40:53;98847.84;;;2.89;100.00
8320;BME280;4197;42.130;24.746;2022-12-15T04:43:40;98854.13;;;3.02;100.00
8320;BME280;4197;42.130;24.746;2022-12-15T04:46:26;98869.41;;;3.01;100.00
8320;BME280;4197;42.130;24.746;2022-12-15T04:49:11;98877.91;;;3.03;100.00
8320;BME280;4197;42.130;24.746;2022-12-15T04:51:57;98877.28;;;3.06;100.00
8320;BME280;4197;42.130;24.746;2022-12-15T04:54:42;98874.75;;;3.01;100.00
8320;BME280;4197;42.130;24.746;2022-12-15T04:57:28;98880.28;;;3.05;100.00
8320;BME280;4197;42.130;24.746;2022-12-15T05:00:15;98882.00;;;3.01;100.00
8320;BME280;4197;42.130;24.746;2022-12-15T05:03:03;98885.00;;;3.08;100.00
8320;BME280;4197;42.130;24.746;2022-12-15T05:05:49;98905.03;;;3.10;100.00
8320;BME280;4197;42.130;24.746;2022-12-15T05:08:34;98895.22;;;3.15;100.00
8320;BME280;4197;42.130;24.746;2022-12-15T05:11:20;98877.28;;;3.06;100.00
8320;BME280;4197;42.130;24.746;2022-12-15T05:14:06;98875.53;;;3.02;100.00
8320;BME280;4197;42.130;24.746;2022-12-15T05:16:52;98860.59;;;3.01;100.00
8320;BME280;4197;42.130;24.746;2022-12-15T05:19:38;98863.59;;;3.08;100.00
8320;BME280;4197;42.130;24.746;2022-12-15T05:22:23;98866.56;;;3.06;100.00
8320;BME280;4197;42.130;24.746;2022-12-15T05:25:09;98888.78;;;2.98;100.00
8320;BME280;4197;42.130;24.746;2022-12-15T05:27:55;98894.00;;;3.03;100.00
8320;BME280;4197;42.130;24.746;2022-12-15T05:30:40;98898.88;;;3.01;100.00
8320;BME280;4197;42.130;24.746;2022-12-15T05:33:27;98898.22;;;3.04;100.00
8320;BME280;4197;42.130;24.746;2022-12-15T05:35:56;98910.69;;;3.09;100.00
8320;BME280;4197;42.130;24.746;2022-12-15T05:38:24;98908.16;;;3.12;100.00
8320;BME280;4197;42.130;24.746;2022-12-15T05:40:56;98911.16;;;3.11;100.00
8320;BME280;4197;42.130;24.746;2022-12-15T05:43:24;98916.97;;;3.04;100.00
8320;BME280;4197;42.130;24.746;2022-12-15T05:45:53;98929.75;;;3.07;100.00
8320;BME280;4197;42.130;24.746;2022-12-15T05:48:21;98954.81;;;3.11;100.00
8320;BME280;4197;42.130;24.746;2022-12-15T05:50:51;98945.84;;;3.16;100.00
8320;BME280;4197;42.130;24.746;2022-12-15T05:53:19;98936.03;;;3.20;100.00
8320;BME280;4197;42.130;24.746;2022-12-15T05:55:47;98944.38;;;3.19;100.00
8320;BME280;4197;42.130;24.746;2022-12-15T05:58:15;98931.31;;;3.17;100.00
8320;BME280;4197;42.130;24.746;2022-12-15T06:00:43;98945.34;;;3.23;100.00
8320;BME280;4197;42.130;24.746;2022-12-15T06:03:11;98951.63;;;3.27;100.00
8320;BME280;4197;42.130;24.746;2022-12-15T06:05:40;98972.47;;;3.30;100.00
8320;BME280;4197;42.130;24.746;2022-12-15T06:08:10;98974.31;;;3.29;100.00
8320;BME280;4197;42.130;24.746;2022-12-15T06:10:38;98965.03;;;3.27;100.00
8320;BME280;4197;42.130;24.746;2022-12-15T06:13:06;98951.00;;;3.12;100.00
8320;BME280;4197;42.130;24.746;2022-12-15T06:15:35;98957.63;;;3.24;100.00
8320;BME280;4197;42.130;24.746;2022-12-15T06:18:03;98950.06;;;3.26;100.00
8320;BME280;4197;42.130;24.746;2022-12-15T06:20:31;98960.75;;;3.34;100.00
8320;BME280;4197;42.130;24.746;2022-12-15T06:22:59;98962.81;;;3.38;100.00
8320;BME280;4197;42.130;24.746;2022-12-15T06:25:29;98963.94;;;3.37;100.00
8320;BME280;4197;42.130;24.746;2022-12-15T06:27:57;98979.84;;;3.42;100.00
8320;BME280;4197;42.130;24.746;2022-12-15T06:30:27;98972.91;;;3.41;100.00
8320;BME280;4197;42.130;24.746;2022-12-15T06:32:56;98991.97;;;3.48;100.00
8320;BME280;4197;42.130;24.746;2022-12-15T06:35:24;98980.75;;;3.54;100.00
8320;BME280;4197;42.130;24.746;2022-12-15T06:37:52;98990.88;;;3.57;100.00
8320;BME280;4197;42.130;24.746;2022-12-15T06:40:20;98993.06;;;3.64;100.00
8320;BME280;4197;42.130;24.746;2022-12-15T06:42:50;98987.53;;;3.69;100.00
8320;BME280;4197;42.130;24.746;2022-12-15T06:45:18;99004.84;;;3.80;100.00
8320;BME280;4197;42.130;24.746;2022-12-15T06:47:47;98991.88;;;3.91;100.00
8320;BME280;4197;42.130;24.746;2022-12-15T06:50:15;98999.44;;;3.98;100.00
8320;BME280;4197;42.130;24.746;2022-12-15T06:52:43;98992.63;;;4.00;100.00
8320;BME280;4197;42.130;24.746;2022-12-15T06:55:11;98994.63;;;4.12;100.00
8320;BME280;4197;42.130;24.746;2022-12-15T06:57:40;99005.97;;;4.18;100.00
8320;BME280;4197;42.130;24.746;2022-12-15T07:00:10;99002.50;;;4.17;100.00
8320;BME280;4197;42.130;24.746;2022-12-15T07:02:41;99002.66;;;4.21;100.00
8320;BME280;4197;42.130;24.746;2022-12-15T07:05:15;99005.78;;;4.32;100.00
8320;BME280;4197;42.130;24.746;2022-12-15T07:07:43;98988.56;;;4.33;100.00
8320;BME280;4197;42.130;24.746;2022-12-15T07:10:12;98993.94;;;4.33;100.00
8320;BME280;4197;42.130;24.746;2022-12-15T07:12:40;98986.75;;;4.45;100.00
8320;BME280;4197;42.130;24.746;2022-12-15T07:15:10;98965.09;;;4.51;100.00
8320;BME280;4197;42.130;24.746;2022-12-15T07:17:38;98957.41;;;4.40;100.00
8320;BME280;4197;42.130;24.746;2022-12-15T07:20:07;98982.81;;;4.43;100.00
8320;BME280;4197;42.130;24.746;2022-12-15T07:22:35;99017.50;;;4.57;100.00
8320;BME280;4197;42.130;24.746;2022-12-15T07:25:05;99016.84;;;4.60;100.00
8320;BME280;4197;42.130;24.746;2022-12-15T07:27:33;99012.88;;;4.66;100.00
8320;BME280;4197;42.130;24.746;2022-12-15T07:30:02;99022.13;;;4.77;100.00
8320;BME280;4197;42.130;24.746;2022-12-15T07:32:32;99032.28;;;4.92;100.00
8320;BME280;4197;42.130;24.746;2022-12-15T07:35:00;99030.13;;;5.07;100.00
8320;BME280;4197;42.130;24.746;2022-12-15T07:37:31;99020.56;;;5.18;100.00
8320;BME280;4197;42.130;24.746;2022-12-15T07:39:59;99019.13;;;5.21;100.00
8320;BME280;4197;42.130;24.746;2022-12-15T07:42:28;99032.97;;;5.31;100.00
8320;BME280;4197;42.130;24.746;2022-12-15T07:44:56;99054.66;;;5.47;100.00
8320;BME280;4197;42.130;24.746;2022-12-15T07:47:25;99048.31;;;5.52;100.00
8320;BME280;4197;42.130;24.746;2022-12-15T07:49:54;99049.88;;;5.53;100.00
8320;BME280;4197;42.130;24.746;2022-12-15T07:52:23;99042.06;;;5.60;100.00
8320;BME280;4197;42.130;24.746;2022-12-15T07:54:51;99036.28;;;5.70;100.00
8320;BME280;4197;42.130;24.746;2022-12-15T07:57:19;99035.59;;;5.73;100.00
8320;BME280;4197;42.130;24.746;2022-12-15T07:59:47;99017.69;;;5.77;100.00
8320;BME280;4197;42.130;24.746;2022-12-15T08:02:15;99029.03;;;5.83;100.00
8320;BME280;4197;42.130;24.746;2022-12-15T08:04:44;99045.28;;;6.08;100.00
8320;BME280;4197;42.130;24.746;2022-12-15T08:07:13;99023.66;;;6.41;100.00
8320;BME280;4197;42.130;24.746;2022-12-15T08:09:42;99036.34;;;6.40;100.00
8320;BME280;4197;42.130;24.746;2022-12-15T08:12:13;99038.69;;;6.42;100.00
8320;BME280;4197;42.130;24.746;2022-12-15T08:14:42;99033.16;;;6.26;100.00
8320;BME280;4197;42.130;24.746;2022-12-15T08:17:15;99038.00;;;6.20;100.00
8320;BME280;4197;42.130;24.746;2022-12-15T08:19:43;99039.69;;;6.13;100.00
8320;BME280;4197;42.130;24.746;2022-12-15T08:22:11;99035.66;;;6.19;100.00
8320;BME280;4197;42.130;24.746;2022-12-15T08:24:42;99033.94;;;6.14;100.00
8320;BME280;4197;42.130;24.746;2022-12-15T08:27:10;99033.06;;;6.10;100.00
8320;BME280;4197;42.130;24.746;2022-12-15T08:29:38;99042.69;;;6.11;100.00
8320;BME280;4197;42.130;24.746;2022-12-15T08:32:22;99047.75;;;6.13;100.00
8320;BME280;4197;42.130;24.746;2022-12-15T08:34:50;99040.59;;;6.29;100.00
8320;BME280;4197;42.130;24.746;2022-12-15T08:37:18;99045.31;;;6.32;100.00
8320;BME280;4197;42.130;24.746;2022-12-15T08:39:48;99053.97;;;6.38;100.00
8320;BME280;4197;42.130;24.746;2022-12-15T08:42:16;99051.59;;;6.36;100.00
8320;BME280;4197;42.130;24.746;2022-12-15T08:44:47;99050.81;;;6.36;100.00
8320;BME280;4197;42.130;24.746;2022-12-15T08:47:15;99062.03;;;6.50;100.00
8320;BME280;4197;42.130;24.746;2022-12-15T08:49:43;99064.75;;;6.50;100.00
8320;BME280;4197;42.130;24.746;2022-12-15T08:52:11;99059.56;;;6.45;100.00
8320;BME280;4197;42.130;24.746;2022-12-15T08:54:39;99059.78;;;6.40;100.00
8320;BME280;4197;42.130;24.746;2022-12-15T08:57:09;99054.31;;;6.48;100.00
8320;BME280;4197;42.130;24.746;2022-12-15T08:59:37;99062.28;;;6.57;100.00
8320;BME280;4197;42.130;24.746;2022-12-15T09:02:05;99050.03;;;6.72;100.00
8320;BME280;4197;42.130;24.746;2022-12-15T09:04:34;99042.97;;;6.67;100.00
8320;BME280;4197;42.130;24.746;2022-12-15T09:07:02;99044.19;;;6.70;100.00
8320;BME280;4197;42.130;24.746;2022-12-15T09:09:30;99039.25;;;6.72;100.00
8320;BME280;4197;42.130;24.746;2022-12-15T09:11:58;99049.72;;;6.74;100.00
8320;BME280;4197;42.130;24.746;2022-12-15T09:14:28;99039.03;;;6.77;100.00
8320;BME280;4197;42.130;24.746;2022-12-15T09:16:57;99050.56;;;6.90;100.00
8320;BME280;4197;42.130;24.746;2022-12-15T09:19:25;99052.03;;;7.00;100.00
8320;BME280;4197;42.130;24.746;2022-12-15T09:21:53;99065.75;;;7.07;100.00
8320;BME280;4197;42.130;24.746;2022-12-15T09:24:22;99056.41;;;7.04;100.00
8320;BME280;4197;42.130;24.746;2022-12-15T09:26:59;99046.97;;;7.10;100.00
8320;BME280;4197;42.130;24.746;2022-12-15T09:29:30;99043.69;;;7.17;100.00
8320;BME280;4197;42.130;24.746;2022-12-15T09:31:58;99050.13;;;7.12;100.00
8320;BME280;4197;42.130;24.746;2022-12-15T09:34:27;99038.97;;;7.26;100.00
8320;BME280;4197;42.130;24.746;2022-12-15T09:36:55;99030.59;;;7.31;100.00
8320;BME280;4197;42.130;24.746;2022-12-15T09:39:23;99046.41;;;7.45;100.00
8320;BME280;4197;42.130;24.746;2022-12-15T09:41:54;99046.09;;;7.47;100.00
8320;BME280;4197;42.130;24.746;2022-12-15T09:44:23;99048.88;;;7.50;100.00
8320;BME280;4197;42.130;24.746;2022-12-15T09:47:03;99057.41;;;7.52;100.00
8320;BME280;4197;42.130;24.746;2022-12-15T09:49:44;99057.25;;;7.73;100.00
8320;BME280;4197;42.130;24.746;2022-12-15T09:52:17;99060.28;;;7.72;100.00
8320;BME280;4197;42.130;24.746;2022-12-15T09:54:46;99065.75;;;7.75;100.00
8320;BME280;4197;42.130;24.746;2022-12-15T09:57:30;99059.56;;;7.75;100.00
8320;BME280;4197;42.130;24.746;2022-12-15T10:00:15;99045.22;;;7.87;100.00
8320;BME280;4197;42.130;24.746;2022-12-15T10:06:01;99060.78;;;8.05;100.00
8320;BME280;4197;42.130;24.746;2022-12-15T10:08:44;99049.59;;;7.91;100.00
8320;BME280;4197;42.130;24.746;2022-12-15T10:11:20;99053.88;;;7.92;100.00
8320;BME280;4197;42.130;24.746;2022-12-15T10:13:56;99064.25;;;8.06;100.00
8320;BME280;4197;42.130;24.746;2022-12-15T10:16:30;99064.97;;;8.19;100.00
8320;BME280;4197;42.130;24.746;2022-12-15T10:19:07;99054.44;;;8.14;100.00
8320;BME280;4197;42.130;24.746;2022-12-15T10:21:40;99061.00;;;8.29;100.00
8320;BME280;4197;42.130;24.746;2022-12-15T10:24:17;99049.56;;;8.35;100.00
8320;BME280;4197;42.130;24.746;2022-12-15T10:27:38;99050.72;;;8.34;100.00
8320;BME280;4197;42.130;24.746;2022-12-15T10:30:12;99045.31;;;8.34;100.00
8320;BME280;4197;42.130;24.746;2022-12-15T10:32:46;99040.19;;;8.45;100.00
8320;BME280;4197;42.130;24.746;2022-12-15T10:35:20;99039.06;;;8.46;100.00
8320;BME280;4197;42.130;24.746;2022-12-15T10:37:50;99027.56;;;8.49;100.00
8320;BME280;4197;42.130;24.746;2022-12-15T10:40:43;99029.63;;;8.56;100.00
8320;BME280;4197;42.130;24.746;2022-12-15T10:43:24;99032.69;;;8.54;100.00
8320;BME280;4197;42.130;24.746;2022-12-15T10:46:01;99026.56;;;8.73;100.00
8320;BME280;4197;42.130;24.746;2022-12-15T10:48:30;99022.78;;;8.78;100.00
8320;BME280;4197;42.130;24.746;2022-12-15T10:51:24;99022.97;;;8.85;100.00
8320;BME280;4197;42.130;24.746;2022-12-15T10:54:03;99034.56;;;8.85;100.00
8320;BME280;4197;42.130;24.746;2022-12-15T10:56:33;99052.34;;;8.86;100.00
8320;BME280;4197;42.130;24.746;2022-12-15T10:59:03;99048.06;;;8.85;100.00
8320;BME280;4197;42.130;24.746;2022-12-15T11:01:32;99052.84;;;8.92;100.00
8320;BME280;4197;42.130;24.746;2022-12-15T11:04:02;99045.44;;;8.89;100.00
8320;BME280;4197;42.130;24.746;2022-12-15T11:06:32;99052.94;;;8.96;100.00
8320;BME280;4197;42.130;24.746;2022-12-15T11:09:27;99054.75;;;9.07;100.00
8320;BME280;4197;42.130;24.746;2022-12-15T11:11:59;99056.81;;;9.14;100.00
8320;BME280;4197;42.130;24.746;2022-12-15T11:14:59;99043.72;;;9.16;100.00
8320;BME280;4197;42.130;24.746;2022-12-15T11:17:36;99049.38;;;9.27;100.00
8320;BME280;4197;42.130;24.746;2022-12-15T11:20:16;99055.84;;;9.22;100.00
8320;BME280;4197;42.130;24.746;2022-12-15T11:22:51;99069.03;;;9.24;100.00
8320;BME280;4197;42.130;24.746;2022-12-15T11:25:27;99060.97;;;9.27;100.00
8320;BME280;4197;42.130;24.746;2022-12-15T11:27:59;99074.16;;;9.29;100.00
8320;BME280;4197;42.130;24.746;2022-12-15T11:30:33;99069.25;;;9.34;100.00
8320;BME280;4197;42.130;24.746;2022-12-15T11:33:07;99061.34;;;9.45;100.00
8320;BME280;4197;42.130;24.746;2022-12-15T11:35:52;99060.88;;;9.59;100.00
8320;BME280;4197;42.130;24.746;2022-12-15T11:38:30;99052.94;;;9.70;100.00
8320;BME280;4197;42.130;24.746;2022-12-15T11:41:07;99059.78;;;9.64;100.00
8320;BME280;4197;42.130;24.746;2022-12-15T11:43:51;99058.72;;;9.68;100.00
8320;BME280;4197;42.130;24.746;2022-12-15T11:46:36;99058.06;;;9.75;100.00
8320;BME280;4197;42.130;24.746;2022-12-15T11:49:24;99070.81;;;9.74;100.00
8320;BME280;4197;42.130;24.746;2022-12-15T11:52:00;99068.09;;;9.74;100.00
8320;BME280;4197;42.130;24.746;2022-12-15T11:54:36;99071.75;;;9.82;100.00
8320;BME280;4197;42.130;24.746;2022-12-15T11:57:22;99070.69;;;9.87;100.00
8320;BME280;4197;42.130;24.746;2022-12-15T12:00:04;99075.72;;;9.88;100.00
8320;BME280;4197;42.130;24.746;2022-12-15T12:02:46;99069.59;;;9.91;100.00
8320;BME280;4197;42.130;24.746;2022-12-15T12:05:36;99068.53;;;9.96;100.00
8320;BME280;4197;42.130;24.746;2022-12-15T12:08:19;99070.66;;;10.06;100.00
8320;BME280;4197;42.130;24.746;2022-12-15T12:10:55;99074.69;;;10.16;100.00
8320;BME280;4197;42.130;24.746;2022-12-15T12:13:35;99073.13;;;10.15;100.00
8320;BME280;4197;42.130;24.746;2022-12-15T12:16:13;99078.31;;;10.23;100.00
8320;BME280;4197;42.130;24.746;2022-12-15T12:18:53;99070.69;;;10.29;100.00
8320;BME280;4197;42.130;24.746;2022-12-15T12:21:23;99074.50;;;10.47;100.00
8320;BME280;4197;42.130;24.746;2022-12-15T12:23:59;99069.72;;;10.41;100.00
8320;BME280;4197;42.130;24.746;2022-12-15T12:26:31;99078.59;;;10.38;100.00
8320;BME280;4197;42.130;24.746;2022-12-15T12:29:12;99077.03;;;10.37;100.00
8320;BME280;4197;42.130;24.746;2022-12-15T12:31:55;99083.22;;;10.37;100.00
8320;BME280;4197;42.130;24.746;2022-12-15T12:34:38;99084.44;;;10.40;100.00
8320;BME280;4197;42.130;24.746;2022-12-15T12:37:20;99092.38;;;10.52;100.00
8320;BME280;4197;42.130;24.746;2022-12-15T12:39:50;99086.19;;;10.52;100.00
8320;BME280;4197;42.130;24.746;2022-12-15T12:42:22;99089.66;;;10.52;100.00
8320;BME280;4197;42.130;24.746;2022-12-15T12:44:55;99091.59;;;10.52;100.00
8320;BME280;4197;42.130;24.746;2022-12-15T12:47:27;99086.84;;;10.45;100.00
8320;BME280;4197;42.130;24.746;2022-12-15T12:50:00;99093.09;;;10.49;100.00
8320;BME280;4197;42.130;24.746;2022-12-15T12:52:32;99106.47;;;10.61;100.00
8320;BME280;4197;42.130;24.746;2022-12-15T12:55:22;99103.75;;;10.61;100.00
8320;BME280;4197;42.130;24.746;2022-12-15T12:57:52;99099.25;;;10.69;100.00
8320;BME280;4197;42.130;24.746;2022-12-15T13:00:23;99103.59;;;10.74;100.00
8320;BME280;4197;42.130;24.746;2022-12-15T13:05:49;99111.13;;;10.61;100.00
8320;BME280;4197;42.130;24.746;2022-12-15T13:11:54;99117.00;;;10.66;100.00
8320;BME280;4197;42.130;24.746;2022-12-15T13:14:34;99128.25;;;10.65;100.00
8320;BME280;4197;42.130;24.746;2022-12-15T13:17:12;99132.56;;;10.69;100.00
8320;BME280;4197;42.130;24.746;2022-12-15T13:26:11;99152.50;;;10.81;100.00
8320;BME280;4197;42.130;24.746;2022-12-15T13:28:44;99152.88;;;10.79;100.00
8320;BME280;4197;42.130;24.746;2022-12-15T13:31:27;99160.63;;;10.81;100.00
8320;BME280;4197;42.130;24.746;2022-12-15T13:34:22;99166.88;;;10.81;100.00
8320;BME280;4197;42.130;24.746;2022-12-15T13:36:53;99160.47;;;10.70;100.00
8320;BME280;4197;42.130;24.746;2022-12-15T13:39:52;99158.31;;;10.79;100.00
8320;BME280;4197;42.130;24.746;2022-12-15T13:42:41;99158.31;;;10.79;100.00
8320;BME280;4197;42.130;24.746;2022-12-15T13:45:31;99158.31;;;10.79;100.00
8320;BME280;4197;42.130;24.746;2022-12-15T13:48:10;99165.09;;;10.69;100.00
8320;BME280;4197;42.130;24.746;2022-12-15T13:50:47;99163.91;;;10.67;100.00
8320;BME280;4197;42.130;24.746;2022-12-15T13:53:22;99163.53;;;10.68;100.00
8320;BME280;4197;42.130;24.746;2022-12-15T13:55:56;99172.25;;;10.58;100.00
8320;BME280;4197;42.130;24.746;2022-12-15T13:58:31;99172.50;;;10.49;100.00
8320;BME280;4197;42.130;24.746;2022-12-15T14:01:00;99170.16;;;10.48;100.00
8320;BME280;4197;42.130;24.746;2022-12-15T14:03:30;99174.72;;;10.44;100.00
8320;BME280;4197;42.130;24.746;2022-12-15T14:06:00;99172.44;;;10.46;100.00
8320;BME280;4197;42.130;24.746;2022-12-15T14:08:29;99180.38;;;10.35;100.00
8320;BME280;4197;42.130;24.746;2022-12-15T14:10:59;99181.09;;;10.32;100.00